Impacts METAR Board INFO
IDs:

KSTL - St Louis/Lambert Int, MO, US

Updated at: 1647 UTC 16 Dec 2017
Potential Impact None Slight Moderate High
Time16/04Z 16/05Z 16/06Z 16/07Z 16/08Z 16/09Z 16/10Z 16/11Z 16/12Z 16/13Z 16/14Z 16/15Z 16/16Z
VIS10 10 10 10 10 10 10 10 10 10 10 10 10
CIG-- -- -- -- -- -- -- -- -- -- -- -- --
CoverCLRCLRCLRCLRCLRCLRCLRCLRCLRFEWFEWFEWFEW
FltCatVFRVFRVFRVFRVFRVFRVFRVFRVFRVFRVFRVFRVFR
WX--------------------------
WDir220210220220210220220220220210210220220
WSpd8 8 9 9 10 13 13 10 14 13 14 14 14
WGst-- -- -- -- -- -- -- -- -- -- -- -- --
Raw hourly METARs
KSTL 160351Z 22008KT 10SM CLR 02/M04 A3005 RMK AO2 SLP184 T00221039
KSTL 160451Z 21008KT 10SM CLR 03/M03 A3005 RMK AO2 SLP183 T00281033
KSTL 160551Z 22009KT 10SM CLR 02/M03 A3004 RMK AO2 SLP177 T00221033 10039 20017 400721022 58005
KSTL 160651Z 22009KT 10SM CLR 02/M03 A3003 RMK AO2 SLP174 T00221033
KSTL 160751Z 21010KT 10SM CLR 02/M03 A3002 RMK AO2 SLP171 T00221033
KSTL 160851Z 22013KT 10SM CLR 03/M03 A3000 RMK AO2 SLP166 T00281033 58012
KSTL 160951Z 22013KT 10SM CLR 03/M03 A2999 RMK AO2 SLP161 T00281033
KSTL 161051Z 22010KT 10SM CLR 03/M04 A2998 RMK AO2 SLP157 T00281039
KSTL 161151Z 22014KT 10SM CLR 04/M04 A2997 RMK AO2 SLP157 T00391039 10039 20022 56010
KSTL 161251Z 21013KT 10SM FEW250 03/M03 A2998 RMK AO2 SLP161 T00331033
KSTL 161351Z 21014KT 10SM FEW250 04/M03 A2998 RMK AO2 SLP160 T00391033
KSTL 161451Z 22014KT 10SM FEW250 06/M03 A3000 RMK AO2 SLP166 T00561033 53009
KSTL 161551Z 22014KT 10SM FEW250 08/M03 A3001 RMK AO2 SLP167 T00831028